createdAt,value
2023-02-11T00:01:37.140Z,24.48
2023-02-11T00:06:40.332Z,25.40
2023-02-11T00:11:44.900Z,27.70
2023-02-11T00:16:48.134Z,28.23
2023-02-11T00:21:51.273Z,20.63
2023-02-11T00:26:55.730Z,25.05
2023-02-11T00:32:05.188Z,24.45
2023-02-11T00:37:08.262Z,22.05
2023-02-11T00:42:15.262Z,22.10
2023-02-11T00:47:18.360Z,21.48
2023-02-11T00:52:21.428Z,21.17
2023-02-11T00:57:25.884Z,23.13
2023-02-11T01:02:28.956Z,20.73
2023-02-11T01:07:32.041Z,25.70
2023-02-11T01:12:36.691Z,22.95
2023-02-11T01:17:39.823Z,27.88
2023-02-11T01:22:42.943Z,19.05
2023-02-11T01:27:47.503Z,27.98
2023-02-11T01:32:50.564Z,19.52
2023-02-11T01:37:53.639Z,24.48
2023-02-11T01:42:58.040Z,24.10
2023-02-11T01:48:03.520Z,22.90
2023-02-11T01:53:20.628Z,20.15
2023-02-11T01:58:25.251Z,24.10
2023-02-11T02:03:29.061Z,19.15
2023-02-11T02:08:36.079Z,23.65
2023-02-11T02:13:40.768Z,26.25
2023-02-11T02:18:48.849Z,20.90
2023-02-11T02:24:12.584Z,26.83
2023-02-11T02:29:32.278Z,22.23
2023-02-11T02:34:41.660Z,21.98
2023-02-11T02:39:46.793Z,26.38
2023-02-11T02:44:50.397Z,23.52
2023-02-11T02:49:54.837Z,24.02
2023-02-11T02:55:15.885Z,21.58
2023-02-11T03:00:23.687Z,18.85
2023-02-11T03:05:31.977Z,27.58
2023-02-11T03:10:36.572Z,26.50
2023-02-11T03:15:42.461Z,27.85
2023-02-11T03:20:49.779Z,24.25
2023-02-11T03:25:57.295Z,21.77
2023-02-11T03:31:06.311Z,32.35
2023-02-11T03:36:15.197Z,32.65
2023-02-11T03:41:21.258Z,28.52
2023-02-11T03:46:25.520Z,24.65
2023-02-11T03:51:30.322Z,27.02
2023-02-11T03:56:36.501Z,24.30
2023-02-11T04:01:39.615Z,27.33
2023-02-11T04:06:44.401Z,33.08
2023-02-11T04:11:47.470Z,24.77
2023-02-11T04:16:50.661Z,27.27
2023-02-11T04:21:55.118Z,26.27
2023-02-11T04:26:58.341Z,27.45
2023-02-11T04:32:01.513Z,23.65
2023-02-11T04:37:06.064Z,28.20
2023-02-11T04:42:09.148Z,29.58
2023-02-11T04:47:13.433Z,31.40
2023-02-11T04:52:17.910Z,26.23
2023-02-11T04:57:20.974Z,26.77
2023-02-11T05:02:24.089Z,26.45
2023-02-11T05:07:28.579Z,25.45
2023-02-11T05:12:31.680Z,28.55
2023-02-11T05:17:34.778Z,36.63
2023-02-11T05:22:39.321Z,37.45
2023-02-11T05:27:42.483Z,26.27
2023-02-11T05:32:45.568Z,30.10
2023-02-11T05:37:50.008Z,29.63
2023-02-11T05:42:53.041Z,32.05
2023-02-11T05:47:56.175Z,29.02
2023-02-11T05:53:00.605Z,32.63
2023-02-11T05:58:03.859Z,38.22
2023-02-11T06:03:07.088Z,33.30
2023-02-11T06:08:11.730Z,34.20
2023-02-11T06:13:14.811Z,36.60
2023-02-11T06:18:17.880Z,39.20
2023-02-11T06:23:22.710Z,31.10
2023-02-11T06:28:25.961Z,33.63
2023-02-11T06:33:29.083Z,38.55
2023-02-11T06:38:33.534Z,41.95
2023-02-11T06:43:36.631Z,45.28
2023-02-11T06:48:39.689Z,38.03
2023-02-11T06:53:45.261Z,42.55
2023-02-11T06:58:48.731Z,38.80
2023-02-11T07:03:51.931Z,45.00
2023-02-11T07:08:56.538Z,53.67
2023-02-11T07:14:01.676Z,44.95
2023-02-11T07:19:04.805Z,37.45
2023-02-11T07:24:11.229Z,44.75
2023-02-11T07:29:14.481Z,46.90
2023-02-11T07:34:17.612Z,43.15
2023-02-11T07:39:22.641Z,51.30
2023-02-11T07:44:25.764Z,49.00
2023-02-11T07:49:29.043Z,55.97
2023-02-11T07:54:33.603Z,51.38
2023-02-11T07:59:37.024Z,51.08
2023-02-11T08:04:40.284Z,59.33
2023-02-11T08:09:44.907Z,57.45
2023-02-11T08:14:48.166Z,63.80
2023-02-11T08:19:51.787Z,62.65
2023-02-11T08:24:58.455Z,55.50
2023-02-11T08:30:02.060Z,61.30
2023-02-11T08:35:05.520Z,64.00
2023-02-11T08:40:10.632Z,61.60
2023-02-11T08:45:13.950Z,64.15
2023-02-11T08:50:17.147Z,57.78
2023-02-11T08:55:21.935Z,67.93
2023-02-11T09:00:25.558Z,72.65
2023-02-11T09:05:28.793Z,73.63
2023-02-11T09:10:33.440Z,76.18
2023-02-11T09:15:37.181Z,71.78
2023-02-11T09:20:40.444Z,73.05
2023-02-11T09:25:45.160Z,75.82
2023-02-11T09:30:48.741Z,73.47
2023-02-11T09:35:52.061Z,71.35
2023-02-11T09:40:56.868Z,77.75
2023-02-11T09:46:00.487Z,67.25
2023-02-11T09:51:05.058Z,77.68
2023-02-11T09:56:13.471Z,70.07
2023-02-11T10:01:22.839Z,71.50
2023-02-11T10:06:34.611Z,73.80
2023-02-11T10:11:43.042Z,67.82
2023-02-11T10:16:53.413Z,77.53
2023-02-11T10:22:00.854Z,61.97
2023-02-11T10:27:08.454Z,64.72
2023-02-11T10:32:16.885Z,69.63
2023-02-11T10:37:20.126Z,60.05
2023-02-11T10:42:26.203Z,64.50
2023-02-11T10:47:32.945Z,66.28
2023-02-11T10:52:36.219Z,65.07
2023-02-11T10:57:44.847Z,58.03
2023-02-11T11:02:53.480Z,67.78
2023-02-11T11:07:57.923Z,58.80
2023-02-11T11:13:02.791Z,56.50
2023-02-11T11:18:21.967Z,52.33
2023-02-11T11:23:25.777Z,55.47
2023-02-11T11:28:30.986Z,49.72
2023-02-11T11:33:35.614Z,50.45
2023-02-11T11:38:39.808Z,48.40
2023-02-11T11:43:55.017Z,46.03
2023-02-11T11:49:01.752Z,46.08
2023-02-11T11:54:07.537Z,36.03
2023-02-11T11:59:15.430Z,40.28
2023-02-11T12:04:28.481Z,41.72
2023-02-11T12:09:37.322Z,38.08
2023-02-11T12:14:46.456Z,34.80
2023-02-11T12:20:23.737Z,34.85
2023-02-11T12:25:28.442Z,36.20
2023-02-11T12:30:47.727Z,28.40
2023-02-11T12:35:57.023Z,32.67
2023-02-11T12:41:10.902Z,28.13
2023-02-11T12:46:32.595Z,30.25
2023-02-11T12:51:40.986Z,28.45
2023-02-11T12:56:47.707Z,27.55
2023-02-11T13:01:53.324Z,26.92
2023-02-11T13:06:58.551Z,25.88
2023-02-11T13:12:24.046Z,27.13
2023-02-11T13:17:31.393Z,21.10
2023-02-11T13:22:39.876Z,25.30
2023-02-11T13:27:45.411Z,25.13
2023-02-11T13:33:07.737Z,24.50
2023-02-11T13:38:19.612Z,28.23
2023-02-11T13:43:23.517Z,24.13
2023-02-11T13:48:30.599Z,28.02
2023-02-11T13:53:45.374Z,25.77
2023-02-11T13:58:49.311Z,24.38
2023-02-11T14:04:25.208Z,29.55
2023-02-11T14:09:38.064Z,26.75
2023-02-11T14:14:56.271Z,26.35
2023-02-11T14:20:00.449Z,25.85
2023-02-11T14:25:15.392Z,26.60
2023-02-11T14:30:31.598Z,24.20
2023-02-11T14:35:37.726Z,23.70
2023-02-11T14:40:47.144Z,25.52
2023-02-11T14:45:52.437Z,25.33
2023-02-11T14:50:59.384Z,25.50
2023-02-11T14:56:04.023Z,23.60
2023-02-11T15:01:09.563Z,23.13
2023-02-11T15:06:17.594Z,40.08
2023-02-11T15:11:23.674Z,26.48
2023-02-11T15:16:28.579Z,24.60
2023-02-11T15:21:32.436Z,22.38
2023-02-11T15:26:37.013Z,22.50
2023-02-11T15:31:40.323Z,21.83
2023-02-11T15:36:43.758Z,19.55
2023-02-11T15:41:48.684Z,19.13
2023-02-11T15:46:52.162Z,17.95
2023-02-11T15:51:57.109Z,20.25
2023-02-11T15:57:03.666Z,33.28
2023-02-11T16:02:08.424Z,19.70
2023-02-11T16:07:36.243Z,17.75
2023-02-11T16:12:41.001Z,15.82
2023-02-11T16:17:45.211Z,15.15
2023-02-11T16:22:48.458Z,14.77
2023-02-11T16:27:54.166Z,14.93
2023-02-11T16:32:57.520Z,16.52
2023-02-11T16:38:00.834Z,17.65
2023-02-11T16:43:05.761Z,21.08
2023-02-11T16:48:09.741Z,16.27
2023-02-11T16:53:13.350Z,18.85
2023-02-11T16:58:18.356Z,15.48
2023-02-11T17:03:28.108Z,46.95
2023-02-11T17:08:32.936Z,21.25
2023-02-11T17:13:39.477Z,16.42
2023-02-11T17:18:42.653Z,20.52
2023-02-11T17:23:46.860Z,15.20
2023-02-11T17:28:51.581Z,18.75
2023-02-11T17:33:54.928Z,17.92
2023-02-11T17:38:59.033Z,18.67
2023-02-11T17:44:03.591Z,15.75
2023-02-11T17:49:06.750Z,17.42
2023-02-11T17:54:11.946Z,17.13
2023-02-11T17:59:16.410Z,18.77
2023-02-11T18:04:20.603Z,16.40
2023-02-11T18:09:23.846Z,14.27
2023-02-11T18:14:28.466Z,14.55
2023-02-11T18:19:33.237Z,21.08
2023-02-11T18:24:36.572Z,23.23
2023-02-11T18:29:41.346Z,17.25
2023-02-11T18:34:44.808Z,18.70
2023-02-11T18:39:48.058Z,15.90
2023-02-11T18:44:52.834Z,22.38
2023-02-11T18:49:55.997Z,16.80
2023-02-11T18:54:59.392Z,20.92
2023-02-11T19:00:04.070Z,22.20
2023-02-11T19:05:07.844Z,22.50
2023-02-11T19:10:13.120Z,30.88
2023-02-11T19:15:18.086Z,31.10
2023-02-11T19:20:22.482Z,35.08
2023-02-11T19:25:25.692Z,25.58
2023-02-11T19:30:30.733Z,32.38
2023-02-11T19:35:35.868Z,25.73
2023-02-11T19:40:39.469Z,25.95
2023-02-11T19:45:44.366Z,21.45
2023-02-11T19:50:47.618Z,25.48
2023-02-11T19:55:51.307Z,22.50
2023-02-11T20:00:55.974Z,29.05
2023-02-11T20:05:59.289Z,23.88
2023-02-11T20:11:06.443Z,19.75
2023-02-11T20:16:12.653Z,22.27
2023-02-11T20:21:17.099Z,21.70
2023-02-11T20:26:21.398Z,22.52
2023-02-11T20:31:26.275Z,17.83
2023-02-11T20:36:32.326Z,22.50
2023-02-11T20:41:39.297Z,54.08
2023-02-11T20:46:45.999Z,25.20
2023-02-11T20:51:49.591Z,26.05
2023-02-11T20:56:54.028Z,20.23
2023-02-11T21:01:59.197Z,24.77
2023-02-11T21:07:03.101Z,24.80
2023-02-11T21:12:08.052Z,18.67
2023-02-11T21:17:13.301Z,27.17
2023-02-11T21:22:16.428Z,26.23
2023-02-11T21:27:19.792Z,28.45
2023-02-11T21:32:24.748Z,25.95
2023-02-11T21:37:27.874Z,20.38
2023-02-11T21:42:31.176Z,18.70
2023-02-11T21:47:35.861Z,22.40
2023-02-11T21:52:39.462Z,23.90
2023-02-11T21:57:42.639Z,18.63
2023-02-11T22:02:49.783Z,21.85
2023-02-11T22:07:53.308Z,21.60
2023-02-11T22:12:56.662Z,27.27
2023-02-11T22:18:01.251Z,25.30
2023-02-11T22:23:04.461Z,26.98
2023-02-11T22:28:07.791Z,23.17
2023-02-11T22:33:12.439Z,18.80
2023-02-11T22:38:15.526Z,24.90
2023-02-11T22:43:18.706Z,21.10
2023-02-11T22:48:23.339Z,21.77
2023-02-11T22:53:26.543Z,19.15
2023-02-11T22:58:29.685Z,24.35
2023-02-11T23:03:34.189Z,74.75
2023-02-11T23:08:38.680Z,25.48
2023-02-11T23:13:42.528Z,26.30
2023-02-11T23:18:47.746Z,30.77
2023-02-11T23:23:54.749Z,21.38
2023-02-11T23:28:58.930Z,26.10
2023-02-11T23:34:03.396Z,29.02
2023-02-11T23:39:06.873Z,24.45
2023-02-11T23:44:11.134Z,28.00
2023-02-11T23:49:16.047Z,25.38
2023-02-11T23:54:19.268Z,30.33
2023-02-11T23:59:22.393Z,25.75
